Etusivu
METAR-TAF:

METAR-TAF

Lentoasemat :

Zabol, Iran

Leveyspiiri: 31-20N, Pituuspiiri: 061-29E, korkeus merenpinnasta: 489 m

Tämänhetkinen sää

Tämä raportti tehtiin 29 minuuttia sitten, kello 13.00 UTC
Tuuli 19 kn pohjoisen/luoteesta
Lämpötila 41°C
Kosteus 13%
Ilmanpaine 1000 hPa
Näkyvyys 10 km tai enemmän
ei pilviä alle 1500 m:ssä eikä cumulonimbus-pilviä

METAR: OIZB 221300Z 34019KT CAVOK 41/07 Q1000

Aika: 17:59 (13:29 UTC)


TAF: puuttuu

Säähavainnot ja -ennusteet yli 4000 lentoasemalta (METAR- ja TAF-raportit).

Käytössä olevat sääasemat on merkitty karttaan keltaisilla ja punaisilla pisteillä.

Aseta hiiri pisteen päälle nähdäksesi sääaseman nimen.

Klikkaa sitten nähdäksesi säähavainnot ja -ennusteet.

Kartan vaihtaminen: klikkaa mustalla rastilla varustettuja vihreitä pisteitä, niin voit zoomata sisään; viivalla varustettua vihreää pistettä, niin voit zoomata ulos tai vihreitä nuolia, niin pääset viereisille kartoille.


METAR-TAF: